sensor_id;sensor_type;location;lat;lon;timestamp;pressure;altitude;pressure_sealevel;temperature;humidity
9538;BME280;4807;48.024;11.726;2023-07-20T00:00:34;94783.28;;;17.64;81.33
9538;BME280;4807;48.024;11.726;2023-07-20T00:03:43;94792.47;;;17.68;81.20
9538;BME280;4807;48.024;11.726;2023-07-20T00:06:53;94791.38;;;17.85;80.67
9538;BME280;4807;48.024;11.726;2023-07-20T00:10:01;94783.88;;;17.87;81.08
9538;BME280;4807;48.024;11.726;2023-07-20T00:13:11;94785.97;;;17.64;81.23
9538;BME280;4807;48.024;11.726;2023-07-20T00:16:19;94788.66;;;17.47;82.29
9538;BME280;4807;48.024;11.726;2023-07-20T00:19:28;94790.94;;;17.55;82.42
9538;BME280;4807;48.024;11.726;2023-07-20T00:22:40;94794.22;;;17.57;82.16
9538;BME280;4807;48.024;11.726;2023-07-20T00:25:48;94791.19;;;17.53;81.76
9538;BME280;4807;48.024;11.726;2023-07-20T00:28:57;94794.81;;;17.42;81.72
9538;BME280;4807;48.024;11.726;2023-07-20T00:32:06;94796.28;;;17.16;82.21
9538;BME280;4807;48.024;11.726;2023-07-20T00:35:14;94805.81;;;17.24;81.44
9538;BME280;4807;48.024;11.726;2023-07-20T00:38:24;94804.59;;;17.32;80.80
9538;BME280;4807;48.024;11.726;2023-07-20T00:41:32;94809.56;;;17.40;80.11
9538;BME280;4807;48.024;11.726;2023-07-20T00:44:42;94806.22;;;17.33;80.42
9538;BME280;4807;48.024;11.726;2023-07-20T00:47:50;94803.13;;;17.41;79.45
9538;BME280;4807;48.024;11.726;2023-07-20T00:51:01;94809.50;;;17.35;80.01
9538;BME280;4807;48.024;11.726;2023-07-20T00:54:11;94813.16;;;17.29;80.37
9538;BME280;4807;48.024;11.726;2023-07-20T00:57:19;94813.38;;;17.44;79.19
9538;BME280;4807;48.024;11.726;2023-07-20T01:00:28;94807.09;;;17.38;79.92
9538;BME280;4807;48.024;11.726;2023-07-20T01:03:37;94815.94;;;17.34;79.19
9538;BME280;4807;48.024;11.726;2023-07-20T01:06:53;94830.09;;;17.46;79.68
9538;BME280;4807;48.024;11.726;2023-07-20T01:10:16;94826.69;;;17.50;78.58
9538;BME280;4807;48.024;11.726;2023-07-20T01:13:27;94818.28;;;17.47;78.02
9538;BME280;4807;48.024;11.726;2023-07-20T01:16:36;94811.84;;;17.48;78.24
9538;BME280;4807;48.024;11.726;2023-07-20T01:19:44;94806.63;;;17.41;79.13
9538;BME280;4807;48.024;11.726;2023-07-20T01:23:25;94814.03;;;17.51;78.17
9538;BME280;4807;48.024;11.726;2023-07-20T01:27:21;94804.16;;;17.73;77.47
9538;BME280;4807;48.024;11.726;2023-07-20T01:30:56;94805.97;;;17.51;77.96
9538;BME280;4807;48.024;11.726;2023-07-20T01:34:12;94801.72;;;17.55;78.55
9538;BME280;4807;48.024;11.726;2023-07-20T01:37:22;94791.59;;;17.62;77.88
9538;BME280;4807;48.024;11.726;2023-07-20T01:40:35;94798.44;;;17.53;77.99
9538;BME280;4807;48.024;11.726;2023-07-20T01:43:44;94794.63;;;17.49;78.09
9538;BME280;4807;48.024;11.726;2023-07-20T01:46:53;94791.41;;;17.52;77.73
9538;BME280;4807;48.024;11.726;2023-07-20T01:50:03;94799.84;;;17.72;77.11
9538;BME280;4807;48.024;11.726;2023-07-20T01:53:12;94804.47;;;17.60;76.76
9538;BME280;4807;48.024;11.726;2023-07-20T01:56:21;94806.69;;;17.63;77.02
9538;BME280;4807;48.024;11.726;2023-07-20T01:59:29;94811.59;;;17.66;77.10
9538;BME280;4807;48.024;11.726;2023-07-20T02:02:38;94816.31;;;17.59;77.33
9538;BME280;4807;48.024;11.726;2023-07-20T02:05:48;94824.41;;;17.59;77.38
9538;BME280;4807;48.024;11.726;2023-07-20T02:08:57;94813.63;;;17.59;77.60
9538;BME280;4807;48.024;11.726;2023-07-20T02:12:06;94803.41;;;17.61;77.79
9538;BME280;4807;48.024;11.726;2023-07-20T02:15:15;94808.72;;;17.56;77.37
9538;BME280;4807;48.024;11.726;2023-07-20T02:18:25;94808.25;;;17.59;77.29
9538;BME280;4807;48.024;11.726;2023-07-20T02:21:35;94813.06;;;17.57;77.49
9538;BME280;4807;48.024;11.726;2023-07-20T02:24:43;94815.13;;;17.67;77.03
9538;BME280;4807;48.024;11.726;2023-07-20T02:27:52;94814.78;;;17.63;77.74
9538;BME280;4807;48.024;11.726;2023-07-20T02:31:01;94815.94;;;17.67;77.25
9538;BME280;4807;48.024;11.726;2023-07-20T02:34:09;94811.03;;;17.64;77.42
9538;BME280;4807;48.024;11.726;2023-07-20T02:37:19;94811.66;;;17.71;77.00
9538;BME280;4807;48.024;11.726;2023-07-20T02:40:27;94810.22;;;17.64;77.24
9538;BME280;4807;48.024;11.726;2023-07-20T02:43:35;94802.81;;;17.76;76.61
9538;BME280;4807;48.024;11.726;2023-07-20T02:46:46;94805.38;;;17.82;75.66
9538;BME280;4807;48.024;11.726;2023-07-20T02:49:57;94805.41;;;17.66;76.02
9538;BME280;4807;48.024;11.726;2023-07-20T02:53:07;94808.53;;;17.79;75.43
9538;BME280;4807;48.024;11.726;2023-07-20T02:56:15;94817.50;;;17.85;75.13
9538;BME280;4807;48.024;11.726;2023-07-20T02:59:25;94803.25;;;17.68;75.27
9538;BME280;4807;48.024;11.726;2023-07-20T03:02:33;94811.00;;;17.81;74.92
9538;BME280;4807;48.024;11.726;2023-07-20T03:05:42;94824.84;;;17.89;74.31
9538;BME280;4807;48.024;11.726;2023-07-20T03:08:52;94836.19;;;17.91;73.97
9538;BME280;4807;48.024;11.726;2023-07-20T03:12:00;94867.16;;;18.11;73.50
9538;BME280;4807;48.024;11.726;2023-07-20T03:15:10;94828.16;;;17.97;76.27
9538;BME280;4807;48.024;11.726;2023-07-20T03:18:18;94832.78;;;17.79;73.65
9538;BME280;4807;48.024;11.726;2023-07-20T03:21:26;94848.38;;;17.44;75.26
9538;BME280;4807;48.024;11.726;2023-07-20T03:24:37;94846.25;;;17.12;74.59
9538;BME280;4807;48.024;11.726;2023-07-20T03:27:45;94839.72;;;16.92;75.02
9538;BME280;4807;48.024;11.726;2023-07-20T03:30:54;94836.59;;;16.83;76.56
9538;BME280;4807;48.024;11.726;2023-07-20T03:34:03;94854.03;;;16.81;77.61
9538;BME280;4807;48.024;11.726;2023-07-20T03:37:13;94881.31;;;16.72;78.26
9538;BME280;4807;48.024;11.726;2023-07-20T03:40:23;94896.19;;;16.63;79.47
9538;BME280;4807;48.024;11.726;2023-07-20T03:43:32;94880.16;;;16.57;79.87
9538;BME280;4807;48.024;11.726;2023-07-20T03:46:40;94874.59;;;16.47;80.04
9538;BME280;4807;48.024;11.726;2023-07-20T03:49:52;94868.31;;;16.41;80.07
9538;BME280;4807;48.024;11.726;2023-07-20T03:53:00;94874.69;;;16.12;80.07
9538;BME280;4807;48.024;11.726;2023-07-20T03:56:09;94880.09;;;16.00;81.83
9538;BME280;4807;48.024;11.726;2023-07-20T03:59:18;94883.25;;;15.85;82.48
9538;BME280;4807;48.024;11.726;2023-07-20T04:02:26;94888.63;;;15.97;82.22
9538;BME280;4807;48.024;11.726;2023-07-20T04:05:34;94878.81;;;15.91;83.12
9538;BME280;4807;48.024;11.726;2023-07-20T04:08:42;94877.97;;;16.02;83.88
9538;BME280;4807;48.024;11.726;2023-07-20T04:11:52;94887.00;;;15.96;84.53
9538;BME280;4807;48.024;11.726;2023-07-20T04:15:00;94888.38;;;16.10;84.35
9538;BME280;4807;48.024;11.726;2023-07-20T04:18:10;94881.81;;;16.18;83.62
9538;BME280;4807;48.024;11.726;2023-07-20T04:21:18;94889.41;;;16.21;83.56
9538;BME280;4807;48.024;11.726;2023-07-20T04:24:26;94878.53;;;16.27;83.20
9538;BME280;4807;48.024;11.726;2023-07-20T04:27:36;94877.91;;;16.37;83.05
9538;BME280;4807;48.024;11.726;2023-07-20T04:30:44;94891.00;;;16.33;83.77
9538;BME280;4807;48.024;11.726;2023-07-20T04:33:53;94901.06;;;16.15;83.65
9538;BME280;4807;48.024;11.726;2023-07-20T04:37:01;94902.09;;;16.25;84.49
9538;BME280;4807;48.024;11.726;2023-07-20T04:40:12;94906.34;;;15.98;84.72
9538;BME280;4807;48.024;11.726;2023-07-20T04:43:21;94896.91;;;15.84;84.56
9538;BME280;4807;48.024;11.726;2023-07-20T04:46:30;94888.97;;;16.00;84.40
9538;BME280;4807;48.024;11.726;2023-07-20T04:49:41;94892.38;;;15.96;85.26
9538;BME280;4807;48.024;11.726;2023-07-20T04:52:53;94890.38;;;16.03;84.32
9538;BME280;4807;48.024;11.726;2023-07-20T04:56:02;94894.69;;;16.04;84.32
9538;BME280;4807;48.024;11.726;2023-07-20T04:59:12;94896.88;;;16.07;84.31
9538;BME280;4807;48.024;11.726;2023-07-20T05:02:20;94901.78;;;15.98;83.47
9538;BME280;4807;48.024;11.726;2023-07-20T05:05:28;94907.16;;;16.10;82.88
9538;BME280;4807;48.024;11.726;2023-07-20T05:08:37;94914.31;;;15.93;83.81
9538;BME280;4807;48.024;11.726;2023-07-20T05:11:46;94910.69;;;15.87;83.91
9538;BME280;4807;48.024;11.726;2023-07-20T05:14:57;94904.97;;;15.95;84.19
9538;BME280;4807;48.024;11.726;2023-07-20T05:18:05;94909.75;;;15.93;84.14
9538;BME280;4807;48.024;11.726;2023-07-20T05:21:13;94900.75;;;15.99;83.73
9538;BME280;4807;48.024;11.726;2023-07-20T05:24:22;94904.59;;;15.92;83.20
9538;BME280;4807;48.024;11.726;2023-07-20T05:27:30;94909.84;;;16.10;83.12
9538;BME280;4807;48.024;11.726;2023-07-20T05:30:40;94905.25;;;16.22;83.50
9538;BME280;4807;48.024;11.726;2023-07-20T05:33:51;94907.56;;;16.30;82.70
9538;BME280;4807;48.024;11.726;2023-07-20T05:37:00;94908.16;;;16.32;81.70
9538;BME280;4807;48.024;11.726;2023-07-20T05:40:09;94912.84;;;16.37;82.12
9538;BME280;4807;48.024;11.726;2023-07-20T05:43:19;94907.78;;;16.52;81.37
9538;BME280;4807;48.024;11.726;2023-07-20T05:46:28;94914.66;;;16.48;81.25
9538;BME280;4807;48.024;11.726;2023-07-20T05:49:52;94914.75;;;16.65;81.45
9538;BME280;4807;48.024;11.726;2023-07-20T05:53:01;94920.06;;;16.88;79.61
9538;BME280;4807;48.024;11.726;2023-07-20T05:56:09;94918.41;;;17.15;79.25
9538;BME280;4807;48.024;11.726;2023-07-20T05:59:17;94921.03;;;17.27;77.95
9538;BME280;4807;48.024;11.726;2023-07-20T06:02:28;94918.16;;;17.62;77.52
9538;BME280;4807;48.024;11.726;2023-07-20T06:05:37;94920.66;;;17.85;75.61
9538;BME280;4807;48.024;11.726;2023-07-20T06:08:45;94925.84;;;18.09;73.64
9538;BME280;4807;48.024;11.726;2023-07-20T06:11:53;94921.91;;;18.16;74.83
9538;BME280;4807;48.024;11.726;2023-07-20T06:15:03;94926.69;;;17.92;74.89
9538;BME280;4807;48.024;11.726;2023-07-20T06:18:14;94920.44;;;18.09;74.26
9538;BME280;4807;48.024;11.726;2023-07-20T06:21:22;94923.66;;;18.06;73.65
9538;BME280;4807;48.024;11.726;2023-07-20T06:24:30;94920.56;;;18.36;73.20
9538;BME280;4807;48.024;11.726;2023-07-20T06:27:39;94921.28;;;18.09;73.83
9538;BME280;4807;48.024;11.726;2023-07-20T06:30:47;94926.22;;;18.17;74.48
9538;BME280;4807;48.024;11.726;2023-07-20T06:33:56;94922.69;;;18.34;73.26
9538;BME280;4807;48.024;11.726;2023-07-20T06:37:06;94921.59;;;18.13;74.55
9538;BME280;4807;48.024;11.726;2023-07-20T06:40:14;94928.88;;;18.34;73.71
9538;BME280;4807;48.024;11.726;2023-07-20T06:43:25;94939.66;;;18.34;74.33
9538;BME280;4807;48.024;11.726;2023-07-20T06:46:36;94937.19;;;18.11;75.25
9538;BME280;4807;48.024;11.726;2023-07-20T06:49:46;94930.75;;;18.12;74.96
9538;BME280;4807;48.024;11.726;2023-07-20T06:52:54;94927.59;;;17.98;75.43
9538;BME280;4807;48.024;11.726;2023-07-20T06:56:05;94932.63;;;18.11;74.62
9538;BME280;4807;48.024;11.726;2023-07-20T06:59:13;94935.06;;;18.51;74.17
9538;BME280;4807;48.024;11.726;2023-07-20T07:02:21;94934.66;;;18.59;72.69
9538;BME280;4807;48.024;11.726;2023-07-20T07:05:31;94928.25;;;18.87;72.17
9538;BME280;4807;48.024;11.726;2023-07-20T07:08:42;94930.69;;;18.89;72.76
9538;BME280;4807;48.024;11.726;2023-07-20T07:11:51;94931.94;;;18.59;72.06
9538;BME280;4807;48.024;11.726;2023-07-20T07:15:00;94936.19;;;18.99;71.52
9538;BME280;4807;48.024;11.726;2023-07-20T07:18:08;94930.50;;;19.22;69.57
9538;BME280;4807;48.024;11.726;2023-07-20T07:21:18;94933.34;;;19.11;70.75
9538;BME280;4807;48.024;11.726;2023-07-20T07:24:28;94925.84;;;18.91;71.49
9538;BME280;4807;48.024;11.726;2023-07-20T07:27:40;94922.84;;;18.65;72.40
9538;BME280;4807;48.024;11.726;2023-07-20T07:30:48;94924.41;;;19.05;72.03
9538;BME280;4807;48.024;11.726;2023-07-20T07:33:57;94923.56;;;19.58;69.27
9538;BME280;4807;48.024;11.726;2023-07-20T07:37:07;94931.38;;;20.29;67.17
9538;BME280;4807;48.024;11.726;2023-07-20T07:40:15;94929.13;;;20.10;67.06
9538;BME280;4807;48.024;11.726;2023-07-20T07:43:24;94933.16;;;20.50;65.98
9538;BME280;4807;48.024;11.726;2023-07-20T07:46:33;94932.78;;;20.88;62.80
9538;BME280;4807;48.024;11.726;2023-07-20T07:49:42;94936.22;;;21.51;61.88
9538;BME280;4807;48.024;11.726;2023-07-20T07:52:54;94930.78;;;21.31;62.75
9538;BME280;4807;48.024;11.726;2023-07-20T07:56:06;94930.16;;;21.14;62.41
9538;BME280;4807;48.024;11.726;2023-07-20T07:59:15;94927.72;;;21.07;63.02
9538;BME280;4807;48.024;11.726;2023-07-20T08:02:23;94926.19;;;21.47;61.59
9538;BME280;4807;48.024;11.726;2023-07-20T08:05:33;94924.28;;;21.42;61.45
9538;BME280;4807;48.024;11.726;2023-07-20T08:08:43;94927.94;;;20.95;62.03
9538;BME280;4807;48.024;11.726;2023-07-20T08:11:51;94932.66;;;21.30;61.36
9538;BME280;4807;48.024;11.726;2023-07-20T08:15:00;94937.00;;;21.37;57.64
9538;BME280;4807;48.024;11.726;2023-07-20T08:18:08;94932.94;;;21.39;59.22
9538;BME280;4807;48.024;11.726;2023-07-20T08:21:17;94930.53;;;21.68;56.30
9538;BME280;4807;48.024;11.726;2023-07-20T08:24:27;94931.06;;;21.55;55.46
9538;BME280;4807;48.024;11.726;2023-07-20T08:27:36;94936.72;;;21.33;55.81
9538;BME280;4807;48.024;11.726;2023-07-20T08:30:47;94936.41;;;21.24;56.17
9538;BME280;4807;48.024;11.726;2023-07-20T08:33:56;94945.69;;;21.54;56.99
9538;BME280;4807;48.024;11.726;2023-07-20T08:37:05;94945.44;;;21.70;56.49
9538;BME280;4807;48.024;11.726;2023-07-20T08:40:15;94946.81;;;22.08;56.27
9538;BME280;4807;48.024;11.726;2023-07-20T08:43:24;94931.63;;;21.92;57.46
9538;BME280;4807;48.024;11.726;2023-07-20T08:46:35;94932.72;;;21.86;56.35
9538;BME280;4807;48.024;11.726;2023-07-20T08:49:48;94933.25;;;21.93;55.98
9538;BME280;4807;48.024;11.726;2023-07-20T08:52:59;94927.00;;;23.62;52.90
9538;BME280;4807;48.024;11.726;2023-07-20T08:56:10;94926.06;;;23.77;51.70
9538;BME280;4807;48.024;11.726;2023-07-20T08:59:19;94924.69;;;23.79;52.10
9538;BME280;4807;48.024;11.726;2023-07-20T09:02:29;94916.50;;;23.84;49.85
9538;BME280;4807;48.024;11.726;2023-07-20T09:05:42;94919.50;;;23.39;51.84
9538;BME280;4807;48.024;11.726;2023-07-20T09:08:52;94921.09;;;23.89;50.65
9538;BME280;4807;48.024;11.726;2023-07-20T09:12:03;94925.13;;;23.57;49.08
9538;BME280;4807;48.024;11.726;2023-07-20T09:15:12;94925.53;;;24.09;48.87
9538;BME280;4807;48.024;11.726;2023-07-20T09:18:25;94934.91;;;24.55;46.24
9538;BME280;4807;48.024;11.726;2023-07-20T09:21:35;94920.03;;;24.71;45.32
9538;BME280;4807;48.024;11.726;2023-07-20T09:24:44;94912.50;;;25.11;44.90
9538;BME280;4807;48.024;11.726;2023-07-20T09:27:54;94896.44;;;25.84;43.45
9538;BME280;4807;48.024;11.726;2023-07-20T09:31:16;94907.81;;;24.93;44.10
9538;BME280;4807;48.024;11.726;2023-07-20T09:34:25;94906.47;;;25.70;42.54
9538;BME280;4807;48.024;11.726;2023-07-20T09:37:37;94894.81;;;24.37;40.89
9538;BME280;4807;48.024;11.726;2023-07-20T09:40:46;94907.50;;;24.18;44.12
9538;BME280;4807;48.024;11.726;2023-07-20T09:44:01;94897.97;;;23.08;41.60
9538;BME280;4807;48.024;11.726;2023-07-20T09:47:29;94897.47;;;21.61;42.49
9538;BME280;4807;48.024;11.726;2023-07-20T09:50:41;94904.31;;;20.76;45.12
9538;BME280;4807;48.024;11.726;2023-07-20T09:53:53;94895.47;;;21.06;47.00
9538;BME280;4807;48.024;11.726;2023-07-20T09:57:03;94901.19;;;22.51;44.11
9538;BME280;4807;48.024;11.726;2023-07-20T10:00:15;94894.84;;;23.30;40.19
9538;BME280;4807;48.024;11.726;2023-07-20T10:03:29;94894.13;;;24.50;40.75
9538;BME280;4807;48.024;11.726;2023-07-20T10:06:43;94899.56;;;24.74;38.32
9538;BME280;4807;48.024;11.726;2023-07-20T10:09:59;94902.19;;;24.60;38.15
9538;BME280;4807;48.024;11.726;2023-07-20T10:13:17;94893.53;;;25.01;38.87
9538;BME280;4807;48.024;11.726;2023-07-20T10:16:32;94884.84;;;24.51;37.89
9538;BME280;4807;48.024;11.726;2023-07-20T10:19:47;94884.69;;;24.14;40.65
9538;BME280;4807;48.024;11.726;2023-07-20T10:22:59;94883.22;;;24.26;38.58
9538;BME280;4807;48.024;11.726;2023-07-20T10:26:10;94882.47;;;24.68;40.33
9538;BME280;4807;48.024;11.726;2023-07-20T10:29:19;94881.78;;;24.34;39.45
9538;BME280;4807;48.024;11.726;2023-07-20T10:32:30;94885.47;;;23.07;43.91
9538;BME280;4807;48.024;11.726;2023-07-20T10:35:54;94874.81;;;22.57;42.21
9538;BME280;4807;48.024;11.726;2023-07-20T10:39:02;94875.97;;;23.10;41.40
9538;BME280;4807;48.024;11.726;2023-07-20T10:42:14;94863.03;;;24.04;43.38
9538;BME280;4807;48.024;11.726;2023-07-20T10:45:37;94867.31;;;24.62;42.70
9538;BME280;4807;48.024;11.726;2023-07-20T10:49:02;94865.81;;;23.99;41.18
9538;BME280;4807;48.024;11.726;2023-07-20T10:52:12;94861.59;;;23.82;41.46
9538;BME280;4807;48.024;11.726;2023-07-20T10:55:21;94866.44;;;23.85;41.71
9538;BME280;4807;48.024;11.726;2023-07-20T10:58:29;94869.72;;;23.09;41.71
9538;BME280;4807;48.024;11.726;2023-07-20T11:01:38;94858.72;;;23.69;42.62
9538;BME280;4807;48.024;11.726;2023-07-20T11:04:51;94856.19;;;24.35;42.38
9538;BME280;4807;48.024;11.726;2023-07-20T11:08:03;94850.19;;;22.43;43.87
9538;BME280;4807;48.024;11.726;2023-07-20T11:11:22;94851.53;;;22.51;45.33
9538;BME280;4807;48.024;11.726;2023-07-20T11:14:31;94843.72;;;23.37;44.49
9538;BME280;4807;48.024;11.726;2023-07-20T11:17:41;94852.81;;;24.19;42.47
9538;BME280;4807;48.024;11.726;2023-07-20T11:20:53;94856.19;;;23.77;39.35
9538;BME280;4807;48.024;11.726;2023-07-20T11:24:04;94842.63;;;24.01;42.68
9538;BME280;4807;48.024;11.726;2023-07-20T11:27:13;94841.28;;;24.99;40.71
9538;BME280;4807;48.024;11.726;2023-07-20T11:30:22;94843.44;;;25.72;40.01
9538;BME280;4807;48.024;11.726;2023-07-20T11:33:30;94830.22;;;23.66;39.12
9538;BME280;4807;48.024;11.726;2023-07-20T11:36:43;94826.97;;;22.86;41.03
9538;BME280;4807;48.024;11.726;2023-07-20T11:39:56;94832.72;;;23.86;40.79
9538;BME280;4807;48.024;11.726;2023-07-20T11:43:07;94829.72;;;24.64;39.72
9538;BME280;4807;48.024;11.726;2023-07-20T11:46:19;94827.44;;;25.33;40.13
9538;BME280;4807;48.024;11.726;2023-07-20T11:49:28;94820.97;;;26.26;37.45
9538;BME280;4807;48.024;11.726;2023-07-20T11:52:42;94828.63;;;26.10;37.79
9538;BME280;4807;48.024;11.726;2023-07-20T11:55:51;94821.88;;;25.89;36.50
9538;BME280;4807;48.024;11.726;2023-07-20T11:59:01;94812.03;;;25.42;37.53
9538;BME280;4807;48.024;11.726;2023-07-20T12:02:12;94801.69;;;24.83;38.53
9538;BME280;4807;48.024;11.726;2023-07-20T12:05:22;94796.47;;;24.67;38.94
9538;BME280;4807;48.024;11.726;2023-07-20T12:08:33;94799.38;;;23.76;39.82
9538;BME280;4807;48.024;11.726;2023-07-20T12:11:44;94800.44;;;23.46;40.33
9538;BME280;4807;48.024;11.726;2023-07-20T12:14:53;94787.34;;;24.11;39.78
9538;BME280;4807;48.024;11.726;2023-07-20T12:18:02;94797.81;;;23.36;41.11
9538;BME280;4807;48.024;11.726;2023-07-20T12:21:11;94790.66;;;23.79;39.08
9538;BME280;4807;48.024;11.726;2023-07-20T12:24:21;94779.88;;;24.45;39.16
9538;BME280;4807;48.024;11.726;2023-07-20T12:27:29;94779.44;;;24.57;38.98
9538;BME280;4807;48.024;11.726;2023-07-20T12:30:38;94774.66;;;25.10;38.92
9538;BME280;4807;48.024;11.726;2023-07-20T12:33:46;94785.72;;;24.33;38.61
9538;BME280;4807;48.024;11.726;2023-07-20T12:36:55;94774.25;;;24.60;37.38
9538;BME280;4807;48.024;11.726;2023-07-20T12:40:07;94770.50;;;24.56;38.52
9538;BME280;4807;48.024;11.726;2023-07-20T12:43:17;94768.38;;;24.91;38.31
9538;BME280;4807;48.024;11.726;2023-07-20T12:46:28;94762.09;;;24.53;36.48
9538;BME280;4807;48.024;11.726;2023-07-20T12:49:37;94768.44;;;24.48;37.88
9538;BME280;4807;48.024;11.726;2023-07-20T12:52:46;94767.56;;;24.05;37.64
9538;BME280;4807;48.024;11.726;2023-07-20T12:55:55;94760.19;;;23.82;38.45
9538;BME280;4807;48.024;11.726;2023-07-20T12:59:04;94755.31;;;23.79;39.04
9538;BME280;4807;48.024;11.726;2023-07-20T13:02:12;94751.13;;;24.39;38.13
9538;BME280;4807;48.024;11.726;2023-07-20T13:05:21;94756.16;;;25.07;37.43
9538;BME280;4807;48.024;11.726;2023-07-20T13:08:49;94758.03;;;25.44;35.45
9538;BME280;4807;48.024;11.726;2023-07-20T13:12:05;94756.66;;;24.90;37.97
9538;BME280;4807;48.024;11.726;2023-07-20T13:15:17;94752.19;;;24.99;36.77
9538;BME280;4807;48.024;11.726;2023-07-20T13:18:25;94751.59;;;24.22;37.89
9538;BME280;4807;48.024;11.726;2023-07-20T13:21:37;94747.97;;;24.03;39.67
9538;BME280;4807;48.024;11.726;2023-07-20T13:24:46;94747.31;;;24.40;37.67
9538;BME280;4807;48.024;11.726;2023-07-20T13:27:58;94744.00;;;25.18;36.55
9538;BME280;4807;48.024;11.726;2023-07-20T13:31:06;94742.06;;;25.70;36.97
9538;BME280;4807;48.024;11.726;2023-07-20T13:34:27;94741.44;;;25.73;36.79
9538;BME280;4807;48.024;11.726;2023-07-20T13:37:38;94747.69;;;24.71;37.24
9538;BME280;4807;48.024;11.726;2023-07-20T13:40:47;94739.44;;;23.91;39.00
9538;BME280;4807;48.024;11.726;2023-07-20T13:43:56;94737.66;;;23.76;39.25
9538;BME280;4807;48.024;11.726;2023-07-20T13:47:06;94726.31;;;24.22;37.36
9538;BME280;4807;48.024;11.726;2023-07-20T13:50:17;94723.41;;;25.12;36.78
9538;BME280;4807;48.024;11.726;2023-07-20T13:53:29;94713.47;;;24.84;38.10
9538;BME280;4807;48.024;11.726;2023-07-20T13:56:41;94721.34;;;24.48;38.52
9538;BME280;4807;48.024;11.726;2023-07-20T13:59:51;94717.59;;;24.20;37.93
9538;BME280;4807;48.024;11.726;2023-07-20T14:02:59;94718.94;;;23.99;39.02
9538;BME280;4807;48.024;11.726;2023-07-20T14:06:11;94711.69;;;24.13;38.88
9538;BME280;4807;48.024;11.726;2023-07-20T14:09:25;94703.03;;;24.91;37.13
9538;BME280;4807;48.024;11.726;2023-07-20T14:12:33;94706.97;;;25.17;38.52
9538;BME280;4807;48.024;11.726;2023-07-20T14:15:43;94711.59;;;25.49;37.81
9538;BME280;4807;48.024;11.726;2023-07-20T14:18:52;94700.50;;;25.45;36.90
9538;BME280;4807;48.024;11.726;2023-07-20T14:22:01;94698.84;;;24.18;37.27
9538;BME280;4807;48.024;11.726;2023-07-20T14:25:10;94706.16;;;24.42;38.17
9538;BME280;4807;48.024;11.726;2023-07-20T14:28:19;94700.19;;;24.21;37.18
9538;BME280;4807;48.024;11.726;2023-07-20T14:31:28;94697.13;;;23.56;37.12
9538;BME280;4807;48.024;11.726;2023-07-20T14:34:39;94695.75;;;23.82;39.34
9538;BME280;4807;48.024;11.726;2023-07-20T14:37:47;94693.69;;;23.74;37.55
9538;BME280;4807;48.024;11.726;2023-07-20T14:40:57;94683.59;;;24.17;37.56
9538;BME280;4807;48.024;11.726;2023-07-20T14:44:07;94687.78;;;24.10;37.17
9538;BME280;4807;48.024;11.726;2023-07-20T14:47:18;94667.25;;;24.41;36.67
9538;BME280;4807;48.024;11.726;2023-07-20T14:50:27;94666.97;;;24.61;36.89
9538;BME280;4807;48.024;11.726;2023-07-20T14:53:36;94671.59;;;24.98;38.41
9538;BME280;4807;48.024;11.726;2023-07-20T14:56:50;94660.31;;;25.51;36.70
9538;BME280;4807;48.024;11.726;2023-07-20T15:00:00;94663.75;;;26.11;35.03
9538;BME280;4807;48.024;11.726;2023-07-20T15:03:11;94656.81;;;26.33;34.63
9538;BME280;4807;48.024;11.726;2023-07-20T15:06:20;94663.38;;;26.18;34.17
9538;BME280;4807;48.024;11.726;2023-07-20T15:09:29;94662.06;;;25.88;35.35
9538;BME280;4807;48.024;11.726;2023-07-20T15:12:38;94653.25;;;26.05;34.20
9538;BME280;4807;48.024;11.726;2023-07-20T15:15:46;94646.88;;;26.37;34.59
9538;BME280;4807;48.024;11.726;2023-07-20T15:18:56;94639.41;;;26.15;32.88
9538;BME280;4807;48.024;11.726;2023-07-20T15:22:05;94644.91;;;25.74;33.13
9538;BME280;4807;48.024;11.726;2023-07-20T15:25:14;94649.56;;;25.60;34.34
9538;BME280;4807;48.024;11.726;2023-07-20T15:28:22;94655.88;;;25.09;35.48
9538;BME280;4807;48.024;11.726;2023-07-20T15:31:30;94642.13;;;24.82;34.47
9538;BME280;4807;48.024;11.726;2023-07-20T15:34:43;94633.28;;;25.08;34.95
9538;BME280;4807;48.024;11.726;2023-07-20T15:37:52;94640.56;;;25.13;35.34
9538;BME280;4807;48.024;11.726;2023-07-20T15:41:00;94632.88;;;25.15;35.65
9538;BME280;4807;48.024;11.726;2023-07-20T15:44:08;94634.59;;;25.11;35.72
9538;BME280;4807;48.024;11.726;2023-07-20T15:47:16;94634.84;;;25.28;35.75
9538;BME280;4807;48.024;11.726;2023-07-20T15:50:27;94630.03;;;25.53;35.38
9538;BME280;4807;48.024;11.726;2023-07-20T15:53:36;94626.94;;;25.13;35.12
9538;BME280;4807;48.024;11.726;2023-07-20T15:56:45;94622.22;;;24.67;36.26
9538;BME280;4807;48.024;11.726;2023-07-20T15:59:53;94626.53;;;24.87;35.77
9538;BME280;4807;48.024;11.726;2023-07-20T16:03:02;94616.31;;;24.47;35.34
9538;BME280;4807;48.024;11.726;2023-07-20T16:06:13;94618.06;;;24.56;35.50
9538;BME280;4807;48.024;11.726;2023-07-20T16:09:22;94614.47;;;24.75;36.01
9538;BME280;4807;48.024;11.726;2023-07-20T16:12:31;94610.81;;;24.65;36.42
9538;BME280;4807;48.024;11.726;2023-07-20T16:15:39;94611.00;;;24.88;35.59
9538;BME280;4807;48.024;11.726;2023-07-20T16:18:51;94602.41;;;24.29;36.36
9538;BME280;4807;48.024;11.726;2023-07-20T16:22:02;94607.81;;;24.11;37.66
9538;BME280;4807;48.024;11.726;2023-07-20T16:25:12;94599.78;;;24.01;37.12
9538;BME280;4807;48.024;11.726;2023-07-20T16:28:20;94618.16;;;23.90;37.17
9538;BME280;4807;48.024;11.726;2023-07-20T16:31:29;94607.34;;;23.66;37.62
9538;BME280;4807;48.024;11.726;2023-07-20T16:34:37;94602.47;;;23.63;37.83
9538;BME280;4807;48.024;11.726;2023-07-20T16:37:50;94613.13;;;23.78;37.98
9538;BME280;4807;48.024;11.726;2023-07-20T16:41:01;94610.31;;;23.88;38.39
9538;BME280;4807;48.024;11.726;2023-07-20T16:44:10;94603.41;;;24.15;36.91
9538;BME280;4807;48.024;11.726;2023-07-20T16:47:19;94601.06;;;24.46;36.41
9538;BME280;4807;48.024;11.726;2023-07-20T16:50:28;94601.66;;;24.61;36.13
9538;BME280;4807;48.024;11.726;2023-07-20T16:53:38;94606.94;;;24.71;36.44
9538;BME280;4807;48.024;11.726;2023-07-20T16:56:46;94603.41;;;24.52;36.55
9538;BME280;4807;48.024;11.726;2023-07-20T16:59:55;94605.28;;;24.38;38.08